Aérodrome :
LOGIN :

S'inscrire | Disclaimer

   EN    FR    IT 

 










Légende :    VFR   VFR Marginal   IFR   IFR Intensif   IFR Très Intensif
Visi : 
Plafond : 
>= 8 km
>= 3000ft
5 à 8 km
1000 à 3000 ft
1500m à 5 km
500 à 1000 ft
800 à 1500m
200 à 500 ft
< 800m
< 200 ft
Symboles :   Orages  Brouillard  Fortes neiges  Fortes précipitations  Vent > 20 kt
SIGMETs :   Divers  Orages  Givrage  Turbulence  Onde Orograph.  Cendres Volcan.






- Altitude de l'aérodrome : 781 ft
- Code IATA : SKP


LWSK - Skopje

DERNIER METAR :
  • 032030Z 00000KT 9999 FEW060 07/04 Q1015 NOSIG

METARs EXPIRÉS :
  • 032000Z 00000KT 9999 FEW060 08/04 Q1015 NOSIG
  • 031930Z 11002KT 9999 FEW060 08/05 Q1015 NOSIG
  • 031900Z 11005KT 9999 FEW060 08/05 Q1015 NOSIG
  • 031830Z 13005KT 9999 FEW060 08/05 Q1015 NOSIG
  • 031800Z 13002KT 9999 FEW060 08/05 Q1014 NOSIG

TAF TAF LWSK
Valide du 03 à 21h jusqu'au 04 à 21h UTC


032030Z 0321/0421 VRB02KT 9999 SCT050 BKN100
TEMPO 0323/0410 5000 RA SCT015 OVC040



MET'MAP, la Météo Aéronautique d'un coup d'oeil ! - Copyright ORBIFLY Décembre 2007 - Disclaimer

ORBIFLY MET'MAP TEAM :

Programmation & Développement : Alexandra Zaïnal
Sur une idée originale de : Baudouin d'Aumeries
Assistance à la programmation : Marc-Olivier Méhu
Soutien technique & logistique : Manuel Goepfert

Contact : metmap@orbifly.com




SOURCES & CREDITS :

   NOAA